Etusivu
METAR-TAF:

METAR-TAF

Lentoasemat :

Deming, New Mexico, Yhdysvallat

Leveyspiiri: 32-15-44N, Pituuspiiri: 107-43-14W, korkeus merenpinnasta: 1315 m

Tämänhetkinen sää

Tämä raportti tehtiin 1 tunti ja 2 minuuttia sitten, kello 02.53 UTC
Tuuli 4 kn idästä/koillisesta
Lämpötila 8°C
Kosteus 39%
Ilmanpaine 1022 hPa
Näkyvyys: 16.1 km
selkeää

METAR: KDMN 210253Z AUTO 07004KT 10SM CLR 08/M05 A3018 RMK AO2 SLP197 T00831050 53013

Aika: 20:55 (03:55 UTC)

Sääennuste

Tämä raportti tehtiin 4 tuntia ja 7 minuuttia sitten, kello 23.48 UTC
Ennuste voimassa 21. päivästä klo 00 UTC - 21. päivään klo 24 UTC
Tuuli 10 kn idästä/koillisesta
Näkyvyys: 10 km
Muutamia pilviä 15000 ft:n korkeudessa
Hajonneita pilviä 25000 ft:n korkeudessa
From 21. päivästä klo 1800 UTC
Tuuli 5 kn idästä/kaakosta
Näkyvyys: 10 km
Muutamia pilviä 15000 ft:n korkeudessa
Hajanaisia pilviä 25000 ft:n korkeudessa

TAF: KDMN 202348Z 2100/2124 07010KT P6SM FEW150 BKN250 FM211800 11005KT P6SM FEW150 SCT250

Säähavainnot ja -ennusteet yli 4000 lentoasemalta (METAR- ja TAF-raportit).

Käytössä olevat sääasemat on merkitty karttaan keltaisilla ja punaisilla pisteillä.

Aseta hiiri pisteen päälle nähdäksesi sääaseman nimen.

Klikkaa sitten nähdäksesi säähavainnot ja -ennusteet.

Kartan vaihtaminen: klikkaa mustalla rastilla varustettuja vihreitä pisteitä, niin voit zoomata sisään; viivalla varustettua vihreää pistettä, niin voit zoomata ulos tai vihreitä nuolia, niin pääset viereisille kartoille.


METAR-TAF: